Luzerne, Michigan
Current Conditions -  °F | °C
As of 11:55 PM on Friday 28 Nov 2014 (Local Time) from KGOV Reporting Station
Overcast Overcast  
Wind Chill: 15°   Ceiling: 4800
Heat Index: 23°   Visibility: 10mi
Dew Point: 21°   Wind: 7mph
Humidity: 91%   Direction: 140°SE
Pressure: 29.98"   Gusts: NA
Location:  44.62°N, 84.27°W
Report Text: KGOV 290455Z AUTO 14006KT 10SM SCT015 SCT036 OVC048 M05/M06 A2998 RMK AO2 T10501062
Loading
Personal Weather Stations






























Interactive Weather Map New forecast layout! Learn more

10-Day Weather Forecast

Advertisements
Track Severe Weather on mobile